createdAt,value
2017-11-21T00:00:09.915Z,15.75
2017-11-21T00:00:44.708Z,16.25
2017-11-21T00:01:19.483Z,15.75
2017-11-21T00:01:54.238Z,14.35
2017-11-21T00:02:29.017Z,13.35
2017-11-21T00:03:03.782Z,14.27
2017-11-21T00:03:38.546Z,14.90
2017-11-21T00:04:13.322Z,14.85
2017-11-21T00:04:48.085Z,15.85
2017-11-21T00:05:22.869Z,14.30
2017-11-21T00:05:57.642Z,15.82
2017-11-21T00:06:32.419Z,14.50
2017-11-21T00:07:07.175Z,15.77
2017-11-21T00:07:41.933Z,15.63
2017-11-21T00:08:16.692Z,14.25
2017-11-21T00:08:51.446Z,15.30
2017-11-21T00:09:26.198Z,14.13
2017-11-21T00:10:00.992Z,14.20
2017-11-21T00:10:35.750Z,16.05
2017-11-21T00:11:10.831Z,15.45
2017-11-21T00:11:45.631Z,14.45
2017-11-21T00:12:20.386Z,15.98
2017-11-21T00:12:55.173Z,14.38
2017-11-21T00:13:29.931Z,15.73
2017-11-21T00:14:04.704Z,16.50
2017-11-21T00:14:39.474Z,13.20
2017-11-21T00:15:14.261Z,16.50
2017-11-21T00:15:49.031Z,13.93
2017-11-21T00:16:23.843Z,15.57
2017-11-21T00:16:58.657Z,15.75
2017-11-21T00:17:33.445Z,15.70
2017-11-21T00:18:08.221Z,15.18
2017-11-21T00:18:42.974Z,14.85
2017-11-21T00:19:17.747Z,15.73
2017-11-21T00:19:52.508Z,15.45
2017-11-21T00:20:27.285Z,14.35
2017-11-21T00:21:02.047Z,14.73
2017-11-21T00:21:36.822Z,14.35
2017-11-21T00:22:11.255Z,14.93
2017-11-21T00:22:46.032Z,15.95
2017-11-21T00:23:20.785Z,14.93
2017-11-21T00:23:55.936Z,13.80
2017-11-21T00:24:30.765Z,15.70
2017-11-21T00:25:05.549Z,15.32
2017-11-21T00:25:40.342Z,15.23
2017-11-21T00:26:15.113Z,15.20
2017-11-21T00:26:49.889Z,14.57
2017-11-21T00:27:24.755Z,15.60
2017-11-21T00:27:59.527Z,15.23
2017-11-21T00:28:34.301Z,14.82
2017-11-21T00:29:09.081Z,15.90
2017-11-21T00:29:43.862Z,14.55
2017-11-21T00:30:18.663Z,14.40
2017-11-21T00:30:53.457Z,14.70
2017-11-21T00:31:28.214Z,15.43
2017-11-21T00:32:02.817Z,14.10
2017-11-21T00:32:37.602Z,14.48
2017-11-21T00:33:12.359Z,14.50
2017-11-21T00:33:47.153Z,14.43
2017-11-21T00:34:21.926Z,15.63
2017-11-21T00:34:56.681Z,14.95
2017-11-21T00:35:31.473Z,14.90
2017-11-21T00:36:06.315Z,15.48
2017-11-21T00:36:41.067Z,14.25
2017-11-21T00:37:15.866Z,14.10
2017-11-21T00:37:50.642Z,14.73
2017-11-21T00:38:25.399Z,14.95
2017-11-21T00:39:00.186Z,15.38
2017-11-21T00:39:34.943Z,15.27
2017-11-21T00:40:09.704Z,15.80
2017-11-21T00:40:44.457Z,16.42
2017-11-21T00:41:19.231Z,16.50
2017-11-21T00:41:53.993Z,16.12
2017-11-21T00:42:28.780Z,15.70
2017-11-21T00:43:03.552Z,13.93
2017-11-21T00:43:38.340Z,15.65
2017-11-21T00:44:13.109Z,14.65
2017-11-21T00:44:47.906Z,14.40
2017-11-21T00:45:22.489Z,15.50
2017-11-21T00:45:57.260Z,15.77
2017-11-21T00:46:32.037Z,15.13
2017-11-21T00:47:06.796Z,15.20
2017-11-21T00:47:41.416Z,15.25
2017-11-21T00:48:16.002Z,15.32
2017-11-21T00:48:50.574Z,15.63
2017-11-21T00:49:25.326Z,16.50
2017-11-21T00:49:59.938Z,16.00
2017-11-21T00:50:34.704Z,14.15
2017-11-21T00:51:09.138Z,14.75
2017-11-21T00:51:43.911Z,14.95
2017-11-21T00:52:18.669Z,16.00
2017-11-21T00:52:53.478Z,17.45
2017-11-21T00:53:28.244Z,14.87
2017-11-21T00:54:03.034Z,16.70
2017-11-21T00:54:37.799Z,15.00
2017-11-21T00:55:12.582Z,15.40
2017-11-21T00:55:47.332Z,15.25
2017-11-21T00:56:22.121Z,14.60
2017-11-21T00:56:56.864Z,16.95
2017-11-21T00:57:31.631Z,15.52
2017-11-21T00:58:06.419Z,15.10
2017-11-21T00:58:41.182Z,15.77
2017-11-21T00:59:15.613Z,15.50
2017-11-21T00:59:50.382Z,14.82
2017-11-21T01:00:25.150Z,15.38
2017-11-21T01:00:59.591Z,15.10
2017-11-21T01:01:34.376Z,16.40
2017-11-21T01:02:09.133Z,14.20
2017-11-21T01:02:43.890Z,14.65
2017-11-21T01:03:18.672Z,15.63
2017-11-21T01:03:53.433Z,16.60
2017-11-21T01:04:28.195Z,15.48
2017-11-21T01:05:02.959Z,16.12
2017-11-21T01:05:37.751Z,16.20
2017-11-21T01:06:12.537Z,15.63
2017-11-21T01:06:47.301Z,14.63
2017-11-21T01:07:22.099Z,15.18
2017-11-21T01:07:56.897Z,16.00
2017-11-21T01:08:31.931Z,14.43
2017-11-21T01:09:06.697Z,14.35
2017-11-21T01:09:41.456Z,15.02
2017-11-21T01:10:16.205Z,15.35
2017-11-21T01:10:51.091Z,14.90
2017-11-21T01:11:25.839Z,15.75
2017-11-21T01:12:00.602Z,15.02
2017-11-21T01:12:35.368Z,15.82
2017-11-21T01:13:10.129Z,15.50
2017-11-21T01:13:45.257Z,15.73
2017-11-21T01:14:20.021Z,14.82
2017-11-21T01:14:54.787Z,15.27
2017-11-21T01:15:29.553Z,15.52
2017-11-21T01:16:04.334Z,15.40
2017-11-21T01:16:39.089Z,14.65
2017-11-21T01:17:13.864Z,15.30
2017-11-21T01:17:48.614Z,15.48
2017-11-21T01:18:23.391Z,15.50
2017-11-21T01:18:58.191Z,17.42
2017-11-21T01:19:32.950Z,14.98
2017-11-21T01:20:07.721Z,15.00
2017-11-21T01:20:42.480Z,15.52
2017-11-21T01:21:17.282Z,14.80
2017-11-21T01:21:52.070Z,14.98
2017-11-21T01:22:26.825Z,15.35
2017-11-21T01:23:01.582Z,15.40
2017-11-21T01:23:36.339Z,14.95
2017-11-21T01:24:11.250Z,14.63
2017-11-21T01:24:46.018Z,16.15
2017-11-21T01:25:20.781Z,14.85
2017-11-21T01:25:55.533Z,15.20
2017-11-21T01:26:30.311Z,14.95
2017-11-21T01:27:05.062Z,14.40
2017-11-21T01:27:39.827Z,15.30
2017-11-21T01:28:14.625Z,15.18
2017-11-21T01:28:49.389Z,15.10
2017-11-21T01:29:24.185Z,15.00
2017-11-21T01:29:58.941Z,14.32
2017-11-21T01:30:33.395Z,16.42
2017-11-21T01:31:07.821Z,15.25
2017-11-21T01:31:42.662Z,14.55
2017-11-21T01:32:17.484Z,15.43
2017-11-21T01:32:52.255Z,14.32
2017-11-21T01:33:26.687Z,14.23
2017-11-21T01:34:01.473Z,14.55
2017-11-21T01:34:36.282Z,14.35
2017-11-21T01:35:11.037Z,15.77
2017-11-21T01:35:45.820Z,14.05
2017-11-21T01:36:20.571Z,14.60
2017-11-21T01:36:55.350Z,15.35
2017-11-21T01:37:30.121Z,15.52
2017-11-21T01:38:04.891Z,16.02
2017-11-21T01:38:39.649Z,14.60
2017-11-21T01:39:14.424Z,16.02
2017-11-21T01:39:49.240Z,15.75
2017-11-21T01:40:23.996Z,15.48
2017-11-21T01:40:58.765Z,14.52
2017-11-21T01:41:33.547Z,14.40
2017-11-21T01:42:08.307Z,14.13
2017-11-21T01:42:43.054Z,14.23
2017-11-21T01:43:17.838Z,14.80
2017-11-21T01:43:52.587Z,14.95
2017-11-21T01:44:27.357Z,14.48
2017-11-21T01:45:02.155Z,15.18
2017-11-21T01:45:36.934Z,15.38
2017-11-21T01:46:11.440Z,15.80
2017-11-21T01:46:46.185Z,15.18
2017-11-21T01:47:20.962Z,14.93
2017-11-21T01:47:55.747Z,16.30
2017-11-21T01:48:30.498Z,15.07
2017-11-21T01:49:05.262Z,14.68
2017-11-21T01:49:40.017Z,15.68
2017-11-21T01:50:14.803Z,14.68
2017-11-21T01:50:49.553Z,14.20
2017-11-21T01:51:24.318Z,15.73
2017-11-21T01:51:59.078Z,14.75
2017-11-21T01:52:33.862Z,16.30
2017-11-21T01:53:08.634Z,16.08
2017-11-21T01:53:43.419Z,15.60
2017-11-21T01:54:18.208Z,15.40
2017-11-21T01:54:52.971Z,16.45
2017-11-21T01:55:27.768Z,16.12
2017-11-21T01:56:02.617Z,15.52
2017-11-21T01:56:37.374Z,15.55
2017-11-21T01:57:12.132Z,15.27
2017-11-21T01:57:46.908Z,15.30
2017-11-21T01:58:21.703Z,16.27
2017-11-21T01:58:56.496Z,15.45
2017-11-21T01:59:31.253Z,14.43
2017-11-21T02:00:06.025Z,16.35
2017-11-21T02:00:40.493Z,15.02
2017-11-21T02:01:15.272Z,15.77
2017-11-21T02:01:50.025Z,16.27
2017-11-21T02:02:24.781Z,16.30
2017-11-21T02:03:05.279Z,15.13
2017-11-21T02:03:40.058Z,14.55
2017-11-21T02:04:14.829Z,15.43
2017-11-21T02:04:49.601Z,14.82
2017-11-21T02:05:24.350Z,15.95
2017-11-21T02:05:59.130Z,15.38
2017-11-21T02:06:33.902Z,15.18
2017-11-21T02:07:08.662Z,15.25
2017-11-21T02:07:43.455Z,16.17
2017-11-21T02:08:18.208Z,17.48
2017-11-21T02:08:53.002Z,16.50
2017-11-21T02:09:27.757Z,17.25
2017-11-21T02:10:02.506Z,15.75
2017-11-21T02:10:37.372Z,15.43
2017-11-21T02:11:12.173Z,16.25
2017-11-21T02:11:46.934Z,16.48
2017-11-21T02:12:21.694Z,16.48
2017-11-21T02:12:56.448Z,15.95
2017-11-21T02:13:31.223Z,16.67
2017-11-21T02:14:05.986Z,15.65
2017-11-21T02:14:40.745Z,16.02
2017-11-21T02:15:15.513Z,15.75
2017-11-21T02:15:50.292Z,16.05
2017-11-21T02:16:25.082Z,15.93
2017-11-21T02:16:59.855Z,16.45
2017-11-21T02:17:34.614Z,17.00
2017-11-21T02:18:09.368Z,15.40
2017-11-21T02:18:44.200Z,17.10
2017-11-21T02:19:18.949Z,16.65
2017-11-21T02:19:53.819Z,16.87
2017-11-21T02:20:29.593Z,16.50
2017-11-21T02:21:04.022Z,16.02
2017-11-21T02:21:38.492Z,16.15
2017-11-21T02:22:12.920Z,15.07
2017-11-21T02:22:47.351Z,15.75
2017-11-21T02:23:21.774Z,15.27
2017-11-21T02:23:56.201Z,14.55
2017-11-21T02:24:30.629Z,16.15
2017-11-21T02:25:05.093Z,16.08
2017-11-21T02:25:39.545Z,16.17
2017-11-21T02:26:14.417Z,16.10
2017-11-21T02:26:49.234Z,15.82
2017-11-21T02:27:23.678Z,15.80
2017-11-21T02:27:58.103Z,14.95
2017-11-21T02:28:32.539Z,16.15
2017-11-21T02:29:06.968Z,16.60
2017-11-21T02:29:41.387Z,15.15
2017-11-21T02:30:16.141Z,15.65
2017-11-21T02:30:50.604Z,13.95
2017-11-21T02:31:25.136Z,16.87
2017-11-21T02:31:59.602Z,15.82
2017-11-21T02:32:34.373Z,17.20
2017-11-21T02:33:08.834Z,15.70
2017-11-21T02:33:43.270Z,16.33
2017-11-21T02:34:18.035Z,15.52
2017-11-21T02:34:52.811Z,15.45
2017-11-21T02:35:27.571Z,15.45
2017-11-21T02:36:02.755Z,15.88
2017-11-21T02:36:37.196Z,15.05
2017-11-21T02:37:11.694Z,15.80
2017-11-21T02:37:46.139Z,16.20
2017-11-21T02:38:20.566Z,16.42
2017-11-21T02:38:54.992Z,16.35
2017-11-21T02:39:29.446Z,15.40
2017-11-21T02:40:03.880Z,16.20
2017-11-21T02:40:38.342Z,16.00
2017-11-21T02:41:13.148Z,15.00
2017-11-21T02:41:47.700Z,15.60
2017-11-21T02:42:22.167Z,15.65
2017-11-21T02:42:56.594Z,16.20
2017-11-21T02:43:31.034Z,17.10
2017-11-21T02:44:05.486Z,15.30
2017-11-21T02:44:39.966Z,15.90
2017-11-21T02:45:14.402Z,15.35
2017-11-21T02:45:49.197Z,16.52
2017-11-21T02:46:23.668Z,15.15
2017-11-21T02:46:58.426Z,16.60
2017-11-21T02:47:33.205Z,15.50
2017-11-21T02:48:07.671Z,14.95
2017-11-21T02:48:42.080Z,16.35
2017-11-21T02:49:16.532Z,16.42
2017-11-21T02:49:50.972Z,14.77
2017-11-21T02:50:25.410Z,14.60
2017-11-21T02:50:59.849Z,15.10
2017-11-21T02:51:34.667Z,15.52
2017-11-21T02:52:09.095Z,15.52
2017-11-21T02:52:43.920Z,14.80
2017-11-21T02:53:18.368Z,16.20
2017-11-21T02:53:52.831Z,15.30
2017-11-21T02:54:27.598Z,13.70
2017-11-21T02:55:02.041Z,15.02
2017-11-21T02:55:36.810Z,16.05
2017-11-21T02:56:11.248Z,13.93
2017-11-21T02:56:46.561Z,15.25
2017-11-21T02:57:21.022Z,13.95
2017-11-21T02:57:55.477Z,15.25
2017-11-21T02:58:30.252Z,15.63
2017-11-21T02:59:04.742Z,16.15
2017-11-21T02:59:39.174Z,14.15
2017-11-21T03:00:13.947Z,15.18
2017-11-21T03:00:48.722Z,14.07
2017-11-21T03:01:23.159Z,14.80
2017-11-21T03:01:57.926Z,16.08
2017-11-21T03:02:32.692Z,15.45
2017-11-21T03:03:07.510Z,15.45
2017-11-21T03:03:42.268Z,14.57
2017-11-21T03:04:17.093Z,16.00
2017-11-21T03:04:51.898Z,15.35
2017-11-21T03:05:26.671Z,16.02
2017-11-21T03:06:01.459Z,15.43
2017-11-21T03:06:36.243Z,15.00
2017-11-21T03:07:11.017Z,14.75
2017-11-21T03:07:45.851Z,14.40
2017-11-21T03:08:20.739Z,14.10
2017-11-21T03:08:55.505Z,15.32
2017-11-21T03:09:30.295Z,16.00
2017-11-21T03:10:05.071Z,14.35
2017-11-21T03:10:39.837Z,15.70
2017-11-21T03:11:14.269Z,15.35
2017-11-21T03:11:49.789Z,15.88
2017-11-21T03:12:24.215Z,14.25
2017-11-21T03:12:58.646Z,14.10
2017-11-21T03:13:33.432Z,15.55
2017-11-21T03:14:08.201Z,13.85
2017-11-21T03:14:42.642Z,14.48
2017-11-21T03:15:17.428Z,14.55
2017-11-21T03:15:51.881Z,15.15
2017-11-21T03:16:26.352Z,14.68
2017-11-21T03:17:01.101Z,14.75
2017-11-21T03:17:35.546Z,15.13
2017-11-21T03:18:10.318Z,15.05
2017-11-21T03:18:45.146Z,14.10
2017-11-21T03:19:19.925Z,15.30
2017-11-21T03:19:54.702Z,14.95
2017-11-21T03:20:35.146Z,14.35
2017-11-21T03:21:30.392Z,15.38
2017-11-21T03:22:10.634Z,14.70
2017-11-21T03:22:50.852Z,15.95
2017-11-21T03:23:31.095Z,13.98
2017-11-21T03:24:11.398Z,16.17
2017-11-21T03:24:51.724Z,15.07
2017-11-21T03:25:31.945Z,14.13
2017-11-21T03:26:12.414Z,15.60
2017-11-21T03:26:46.841Z,15.05
2017-11-21T03:27:27.282Z,14.77
2017-11-21T03:28:03.662Z,15.05
2017-11-21T03:28:38.109Z,16.42
2017-11-21T03:29:12.549Z,15.95
2017-11-21T03:29:47.049Z,16.37
2017-11-21T03:30:21.813Z,16.20
2017-11-21T03:30:56.247Z,15.15
2017-11-21T03:31:31.028Z,14.77
2017-11-21T03:32:05.802Z,16.33
2017-11-21T03:32:40.582Z,16.10
2017-11-21T03:33:15.365Z,14.48
2017-11-21T03:33:50.222Z,14.57
2017-11-21T03:34:25.025Z,15.68
2017-11-21T03:34:59.782Z,15.38
2017-11-21T03:35:34.235Z,14.70
2017-11-21T03:36:08.662Z,15.75
2017-11-21T03:36:43.088Z,14.63
2017-11-21T03:37:17.521Z,15.23
2017-11-21T03:37:52.357Z,15.35
2017-11-21T03:38:26.795Z,15.45
2017-11-21T03:39:01.232Z,15.10
2017-11-21T03:39:36.028Z,14.68
2017-11-21T03:40:10.780Z,15.25
2017-11-21T03:40:45.588Z,14.80
2017-11-21T03:41:20.351Z,14.85
2017-11-21T03:41:55.123Z,14.20
2017-11-21T03:42:29.893Z,15.77
2017-11-21T03:43:04.667Z,15.25
2017-11-21T03:43:39.429Z,15.05
2017-11-21T03:44:14.179Z,16.00
2017-11-21T03:44:48.647Z,15.40
2017-11-21T03:45:23.400Z,16.60
2017-11-21T03:45:57.839Z,16.33
2017-11-21T03:46:32.612Z,15.27
2017-11-21T03:47:07.398Z,16.02
2017-11-21T03:47:42.162Z,17.27
2017-11-21T03:48:16.931Z,16.45
2017-11-21T03:48:51.765Z,16.00
2017-11-21T03:49:26.190Z,15.85
2017-11-21T03:50:00.984Z,16.27
2017-11-21T03:50:35.751Z,16.40
2017-11-21T03:51:10.562Z,15.75
2017-11-21T03:51:45.032Z,15.70
2017-11-21T03:52:19.800Z,15.68
2017-11-21T03:52:54.558Z,15.15
2017-11-21T03:53:29.329Z,15.07
2017-11-21T03:54:04.086Z,16.65
2017-11-21T03:54:38.843Z,15.93
2017-11-21T03:55:13.633Z,15.63
2017-11-21T03:55:48.395Z,15.57
2017-11-21T03:56:23.172Z,15.13
2017-11-21T03:56:57.942Z,15.23
2017-11-21T03:57:32.698Z,15.30
2017-11-21T03:58:07.475Z,15.23
2017-11-21T03:58:42.232Z,15.55
2017-11-21T03:59:17.008Z,14.77
2017-11-21T03:59:51.766Z,15.70
2017-11-21T04:00:26.230Z,16.37
2017-11-21T04:01:00.989Z,16.23
2017-11-21T04:01:35.407Z,16.02
2017-11-21T04:02:09.838Z,14.45
2017-11-21T04:02:44.593Z,15.20
2017-11-21T04:03:19.345Z,16.35
2017-11-21T04:03:53.774Z,15.10
2017-11-21T04:04:28.670Z,15.75
2017-11-21T04:05:03.450Z,15.35
2017-11-21T04:05:37.910Z,15.00
2017-11-21T04:06:12.345Z,16.15
2017-11-21T04:06:47.102Z,15.80
2017-11-21T04:07:21.857Z,16.40
2017-11-21T04:07:56.306Z,15.43
2017-11-21T04:08:31.089Z,14.80
2017-11-21T04:09:05.514Z,15.75
2017-11-21T04:09:40.269Z,14.30
2017-11-21T04:10:14.713Z,16.08
2017-11-21T04:10:49.498Z,15.98
2017-11-21T04:11:24.262Z,15.98
2017-11-21T04:11:58.697Z,15.40
2017-11-21T04:12:33.465Z,15.63
2017-11-21T04:13:08.231Z,16.25
2017-11-21T04:13:43.026Z,16.10
2017-11-21T04:14:17.789Z,16.25
2017-11-21T04:14:52.556Z,15.45
2017-11-21T04:15:26.982Z,15.55
2017-11-21T04:16:02.074Z,16.62
2017-11-21T04:16:36.962Z,15.73
2017-11-21T04:17:11.760Z,15.85
2017-11-21T04:17:46.228Z,17.15
2017-11-21T04:18:20.982Z,16.30
2017-11-21T04:18:55.743Z,16.70
2017-11-21T04:19:30.000Z,17.45
2017-11-21T04:20:04.765Z,15.50
2017-11-21T04:20:39.524Z,17.30
2017-11-21T04:21:14.346Z,16.33
2017-11-21T05:41:53.533Z,15.77
2017-11-21T05:42:28.324Z,16.50
2017-11-21T05:43:03.121Z,20.27
2017-11-21T05:43:38.512Z,21.50
2017-11-21T05:44:13.271Z,22.05
2017-11-21T05:44:48.051Z,21.20
2017-11-21T05:45:22.972Z,20.73
2017-11-21T05:45:57.790Z,22.17
2017-11-21T05:46:32.219Z,22.85
2017-11-21T05:47:06.981Z,21.45
2017-11-21T05:47:41.763Z,22.95
2017-11-21T05:48:16.197Z,23.90
2017-11-21T05:48:50.652Z,21.70
2017-11-21T05:49:25.085Z,22.27
2017-11-21T05:49:59.867Z,23.02
2017-11-21T05:50:35.326Z,22.90
2017-11-21T05:51:09.769Z,23.10
2017-11-21T05:51:44.228Z,21.45
2017-11-21T05:52:18.986Z,23.00
2017-11-21T05:52:53.737Z,22.65
2017-11-21T05:53:28.555Z,24.27
2017-11-21T05:54:03.664Z,24.48
2017-11-21T05:54:38.412Z,22.70
2017-11-21T05:55:13.167Z,22.45
2017-11-21T05:55:47.969Z,22.75
2017-11-21T05:56:22.740Z,23.65
2017-11-21T05:56:57.526Z,23.60
2017-11-21T05:57:31.961Z,22.60
2017-11-21T05:58:06.777Z,22.50
2017-11-21T05:58:41.551Z,23.33
2017-11-21T05:59:16.334Z,22.50
2017-11-21T05:59:51.111Z,23.02
2017-11-21T06:00:25.867Z,25.20
2017-11-21T06:01:00.668Z,23.77
2017-11-21T06:01:35.136Z,23.12
2017-11-21T06:02:09.921Z,22.70
2017-11-21T06:02:44.701Z,24.30
2017-11-21T06:03:19.475Z,23.12
2017-11-21T06:03:53.901Z,23.25
2017-11-21T06:04:28.718Z,24.08
2017-11-21T06:05:03.474Z,24.48
2017-11-21T06:05:38.264Z,23.52
2017-11-21T06:06:13.046Z,23.08
2017-11-21T06:06:47.817Z,24.08
2017-11-21T06:07:22.394Z,25.00
2017-11-21T06:07:57.150Z,22.87
2017-11-21T06:08:31.920Z,24.15
2017-11-21T06:09:06.694Z,22.20
2017-11-21T06:09:41.862Z,23.25
2017-11-21T06:10:16.617Z,23.05
2017-11-21T06:10:51.385Z,23.85
2017-11-21T06:11:26.231Z,23.05
2017-11-21T06:12:01.007Z,23.17
2017-11-21T06:12:35.780Z,23.60
2017-11-21T06:13:10.549Z,24.65
2017-11-21T06:13:45.319Z,22.90
2017-11-21T06:14:20.083Z,22.05
2017-11-21T06:14:54.908Z,23.20
2017-11-21T06:15:29.695Z,21.80
2017-11-21T06:16:04.547Z,23.00
2017-11-21T06:16:39.446Z,24.08
2017-11-21T06:17:14.246Z,24.30
2017-11-21T06:17:49.017Z,23.83
2017-11-21T06:18:23.857Z,25.10
2017-11-21T06:18:58.638Z,24.40
2017-11-21T06:19:33.409Z,24.02
2017-11-21T06:20:08.197Z,23.17
2017-11-21T06:20:42.958Z,24.60
2017-11-21T06:21:17.718Z,24.73
2017-11-21T06:21:52.492Z,23.00
2017-11-21T06:22:27.250Z,22.55
2017-11-21T06:23:02.022Z,25.60
2017-11-21T06:23:36.790Z,23.83
2017-11-21T06:24:11.550Z,22.67
2017-11-21T06:24:46.074Z,23.70
2017-11-21T06:25:20.873Z,22.62
2017-11-21T06:25:55.637Z,23.92
2017-11-21T06:26:30.455Z,23.58
2017-11-21T06:27:05.240Z,23.05
2017-11-21T06:27:40.005Z,25.23
2017-11-21T06:28:14.766Z,23.77
2017-11-21T06:28:49.528Z,24.73
2017-11-21T06:29:24.302Z,25.33
2017-11-21T06:29:59.075Z,24.23
2017-11-21T06:30:33.864Z,23.60
2017-11-21T06:31:08.625Z,23.98
2017-11-21T06:31:43.401Z,26.65
2017-11-21T06:32:18.161Z,24.55
2017-11-21T06:32:52.917Z,26.25
2017-11-21T06:33:27.689Z,25.37
2017-11-21T06:34:02.462Z,23.02
2017-11-21T06:34:37.260Z,24.70
2017-11-21T06:35:12.031Z,24.35
2017-11-21T06:35:46.831Z,24.27
2017-11-21T06:36:21.610Z,25.15
2017-11-21T06:36:56.380Z,24.77
2017-11-21T06:37:31.146Z,24.20
2017-11-21T06:38:05.923Z,23.30
2017-11-21T06:38:40.686Z,23.05
2017-11-21T06:39:15.440Z,23.08
2017-11-21T06:39:50.209Z,21.70
2017-11-21T06:40:24.974Z,22.98
2017-11-21T06:40:59.787Z,21.98
2017-11-21T06:41:34.561Z,22.02
2017-11-21T06:42:09.331Z,21.42
2017-11-21T06:42:44.121Z,20.30
2017-11-21T06:43:18.884Z,19.33
2017-11-21T06:43:53.660Z,20.30
2017-11-21T06:44:28.418Z,19.55
2017-11-21T06:45:03.193Z,18.62
2017-11-21T06:45:37.982Z,20.25
2017-11-21T06:46:12.854Z,20.62
2017-11-21T06:46:47.625Z,18.73
2017-11-21T06:47:22.390Z,18.58
2017-11-21T06:47:57.173Z,19.12
2017-11-21T06:48:31.937Z,19.08
2017-11-21T06:49:06.702Z,19.70
2017-11-21T06:49:41.477Z,19.33
2017-11-21T06:50:16.261Z,17.50
2017-11-21T06:50:51.210Z,19.92
2017-11-21T06:51:26.002Z,18.60
2017-11-21T06:52:00.782Z,19.87
2017-11-21T06:52:35.349Z,17.92
2017-11-21T06:53:10.108Z,18.33
2017-11-21T06:53:44.865Z,17.90
2017-11-21T06:54:19.640Z,18.42
2017-11-21T06:54:54.405Z,17.65
2017-11-21T06:55:29.173Z,17.58
2017-11-21T06:56:03.936Z,17.80
2017-11-21T06:56:38.734Z,18.25
2017-11-21T06:57:13.501Z,16.60
2017-11-21T06:57:47.936Z,18.52
2017-11-21T06:58:22.693Z,20.50
2017-11-21T06:58:57.452Z,19.85
2017-11-21T06:59:32.217Z,18.27
2017-11-21T07:00:06.661Z,19.12
2017-11-21T07:00:41.429Z,19.23
2017-11-21T07:01:16.220Z,19.10
2017-11-21T07:01:51.028Z,18.08
2017-11-21T07:02:25.787Z,17.73
2017-11-21T07:03:00.244Z,18.23
2017-11-21T07:03:34.993Z,18.35
2017-11-21T07:04:09.772Z,16.65
2017-11-21T07:04:44.529Z,17.70
2017-11-21T07:05:19.331Z,15.45
2017-11-21T07:05:54.107Z,17.40
2017-11-21T07:06:28.854Z,17.85
2017-11-21T07:07:03.669Z,17.05
2017-11-21T07:07:38.438Z,17.95
2017-11-21T07:08:13.207Z,17.62
2017-11-21T07:08:48.013Z,17.80
2017-11-21T07:09:28.232Z,16.70
2017-11-21T07:10:02.998Z,15.88
2017-11-21T07:10:37.768Z,17.60
2017-11-21T07:11:12.526Z,16.73
2017-11-21T07:11:47.304Z,18.60
2017-11-21T07:12:22.116Z,17.80
2017-11-21T07:12:56.865Z,17.90
2017-11-21T07:13:31.674Z,17.15
2017-11-21T07:14:06.438Z,16.60
2017-11-21T07:14:41.207Z,17.52
2017-11-21T07:15:16.073Z,17.35
2017-11-21T07:15:50.616Z,17.60
2017-11-21T07:16:25.374Z,17.67
2017-11-21T07:17:00.138Z,17.92
2017-11-21T07:17:34.921Z,17.98
2017-11-21T07:18:09.680Z,17.15
2017-11-21T07:18:44.438Z,17.85
2017-11-21T07:19:19.232Z,17.60
2017-11-21T07:19:53.989Z,16.23
2017-11-21T07:20:28.749Z,18.05
2017-11-21T07:21:03.506Z,16.85
2017-11-21T07:21:38.390Z,17.20
2017-11-21T07:22:13.162Z,17.85
2017-11-21T07:22:47.951Z,18.20
2017-11-21T07:23:22.713Z,17.62
2017-11-21T07:23:57.503Z,18.60
2017-11-21T07:24:32.335Z,17.98
2017-11-21T07:25:07.096Z,17.48
2017-11-21T07:25:41.850Z,17.33
2017-11-21T07:26:16.290Z,18.55
2017-11-21T07:26:51.926Z,18.83
2017-11-21T07:27:26.814Z,18.40
2017-11-21T07:28:01.595Z,18.30
2017-11-21T07:28:36.380Z,18.45
2017-11-21T07:29:10.805Z,18.42
2017-11-21T07:29:45.562Z,18.55
2017-11-21T07:30:20.330Z,18.35
2017-11-21T07:30:55.093Z,19.08
2017-11-21T07:31:29.890Z,19.67
2017-11-21T07:32:04.332Z,20.30
2017-11-21T07:32:39.148Z,19.42
2017-11-21T07:33:13.929Z,19.65
2017-11-21T07:33:48.697Z,18.95
2017-11-21T07:34:23.445Z,19.75
2017-11-21T07:34:58.240Z,19.30
2017-11-21T07:35:33.024Z,19.90
2017-11-21T07:36:07.781Z,19.77
2017-11-21T07:36:42.556Z,20.05
2017-11-21T07:37:17.310Z,20.30
2017-11-21T07:37:52.070Z,19.77
2017-11-21T07:38:27.250Z,19.45
2017-11-21T07:39:02.036Z,20.80
2017-11-21T07:39:36.798Z,20.37
2017-11-21T07:40:11.558Z,20.15
2017-11-21T07:40:46.310Z,19.40
2017-11-21T07:41:21.248Z,21.00
2017-11-21T07:41:56.022Z,20.85
2017-11-21T07:42:30.821Z,19.48
2017-11-21T07:43:05.594Z,21.12
2017-11-21T07:43:40.391Z,19.17
2017-11-21T07:44:15.171Z,19.70
2017-11-21T07:44:49.933Z,20.45
2017-11-21T07:45:24.705Z,20.20
2017-11-21T07:45:59.469Z,18.92
2017-11-21T07:46:34.277Z,19.45
2017-11-21T07:47:09.049Z,20.55
2017-11-21T07:47:43.809Z,20.20
2017-11-21T07:48:18.577Z,18.95
2017-11-21T07:48:53.695Z,19.65
2017-11-21T07:49:28.449Z,20.45
2017-11-21T07:50:03.226Z,21.15
2017-11-21T07:50:37.981Z,20.30
2017-11-21T07:51:12.746Z,19.25
2017-11-21T07:51:47.529Z,20.80
2017-11-21T07:52:22.291Z,20.37
2017-11-21T07:52:57.063Z,21.02
2017-11-21T07:53:31.833Z,20.00
2017-11-21T07:54:06.278Z,21.02
2017-11-21T07:54:41.058Z,22.00
2017-11-21T07:55:15.834Z,20.62
2017-11-21T07:55:50.672Z,22.00
2017-11-21T07:56:25.431Z,20.27
2017-11-21T07:57:00.203Z,21.08
2017-11-21T07:57:34.957Z,20.70
2017-11-21T07:58:09.735Z,21.10
2017-11-21T07:58:44.498Z,19.80
2017-11-21T07:59:19.282Z,22.58
2017-11-21T07:59:54.055Z,20.67
2017-11-21T08:00:28.821Z,22.27
2017-11-21T08:01:03.613Z,22.70
2017-11-21T08:01:38.443Z,22.33
2017-11-21T08:02:13.201Z,23.23
2017-11-21T08:02:48.076Z,20.23
2017-11-21T08:03:22.904Z,22.25
2017-11-21T08:03:57.679Z,22.23
2017-11-21T08:04:32.518Z,22.55
2017-11-21T08:05:07.494Z,21.77
2017-11-21T08:05:42.256Z,23.80
2017-11-21T08:06:16.702Z,22.05
2017-11-21T08:06:51.146Z,22.25
2017-11-21T08:07:25.911Z,21.48
2017-11-21T08:08:00.677Z,22.15
2017-11-21T08:08:35.439Z,23.02
2017-11-21T08:09:10.222Z,22.40
2017-11-21T08:09:44.704Z,21.60
2017-11-21T08:10:19.145Z,21.65
2017-11-21T08:10:53.582Z,22.65
2017-11-21T08:11:28.045Z,23.20
2017-11-21T08:12:02.629Z,23.12
2017-11-21T08:12:37.079Z,22.52
2017-11-21T08:13:11.850Z,24.12
2017-11-21T08:13:46.303Z,23.23
2017-11-21T08:14:21.073Z,24.80
2017-11-21T08:14:56.229Z,22.35
2017-11-21T08:15:30.993Z,23.50
2017-11-21T08:16:05.452Z,21.80
2017-11-21T08:16:40.207Z,23.00
2017-11-21T08:17:14.975Z,21.40
2017-11-21T08:17:49.746Z,21.85
2017-11-21T08:18:24.179Z,24.45
2017-11-21T08:18:58.946Z,21.85
2017-11-21T08:19:33.728Z,22.08
2017-11-21T08:20:08.555Z,23.35
2017-11-21T08:20:43.319Z,22.87
2017-11-21T08:21:17.786Z,23.33
2017-11-21T08:21:52.233Z,23.80
2017-11-21T08:22:27.032Z,23.48
2017-11-21T08:23:01.676Z,23.67
2017-11-21T08:23:36.126Z,21.08
2017-11-21T08:24:10.895Z,21.85
2017-11-21T08:24:45.697Z,23.25
2017-11-21T08:25:20.514Z,23.62
2017-11-21T08:25:55.013Z,23.42
2017-11-21T08:26:29.443Z,23.80
2017-11-21T08:27:03.892Z,22.73
2017-11-21T08:27:38.688Z,23.92
2017-11-21T08:28:13.169Z,22.23
2017-11-21T08:28:47.932Z,23.65
2017-11-21T08:29:22.750Z,23.60
2017-11-21T08:29:57.523Z,22.20
2017-11-21T08:30:32.363Z,22.35
2017-11-21T08:31:07.353Z,23.98
2017-11-21T08:31:42.230Z,22.37
2017-11-21T08:32:16.994Z,23.92
2017-11-21T08:32:51.442Z,24.15
2017-11-21T08:33:25.874Z,21.37
2017-11-21T08:34:00.650Z,22.48
2017-11-21T08:34:35.426Z,23.50
2017-11-21T08:35:10.194Z,24.10
2017-11-21T08:35:45.012Z,23.95
2017-11-21T08:36:19.784Z,22.90
2017-11-21T08:36:54.547Z,22.45
2017-11-21T08:37:29.331Z,22.67
2017-11-21T08:38:04.086Z,22.17
2017-11-21T08:38:38.538Z,22.65
2017-11-21T08:39:13.174Z,22.05
2017-11-21T08:39:47.620Z,23.05
2017-11-21T08:40:22.425Z,23.15
2017-11-21T08:40:57.228Z,21.85
2017-11-21T08:41:32.023Z,23.05
2017-11-21T08:42:06.788Z,22.62
2017-11-21T08:42:41.558Z,22.23
2017-11-21T08:43:16.320Z,23.65
2017-11-21T08:43:51.140Z,23.33
2017-11-21T08:44:25.924Z,22.75
2017-11-21T08:45:00.702Z,23.50
2017-11-21T08:45:35.470Z,22.60
2017-11-21T08:46:10.557Z,23.25
2017-11-21T08:46:45.320Z,23.80
2017-11-21T08:47:20.103Z,24.42
2017-11-21T08:47:54.909Z,23.73
2017-11-21T08:48:29.674Z,23.27